createdAt,value
2018-05-25T00:03:09.441Z,51.40
2018-05-25T00:07:12.072Z,51.50
2018-05-25T00:11:14.713Z,51.40
2018-05-25T00:15:17.360Z,51.40
2018-05-25T00:19:19.967Z,51.40
2018-05-25T00:23:23.431Z,51.20
2018-05-25T00:27:26.071Z,51.20
2018-05-25T00:31:29.473Z,50.90
2018-05-25T00:35:32.892Z,50.80
2018-05-25T00:39:35.536Z,50.80
2018-05-25T00:43:38.233Z,50.80
2018-05-25T00:47:40.944Z,50.80
2018-05-25T00:51:44.343Z,50.80
2018-05-25T00:55:46.952Z,50.80
2018-05-25T00:59:49.588Z,50.20
2018-05-25T01:03:52.232Z,51.30
2018-05-25T01:07:54.875Z,50.90
2018-05-25T01:11:57.568Z,51.10
2018-05-25T01:16:00.174Z,51.80
2018-05-25T01:20:03.571Z,53.50
2018-05-25T01:24:06.216Z,53.50
2018-05-25T01:28:08.883Z,51.80
2018-05-25T01:32:11.581Z,51.80
2018-05-25T01:36:14.188Z,51.80
2018-05-25T01:40:16.832Z,51.40
2018-05-25T01:44:20.242Z,51.40
2018-05-25T01:48:23.660Z,51.20
2018-05-25T01:52:26.324Z,51.30
2018-05-25T01:56:29.749Z,51.70
2018-05-25T02:00:32.445Z,51.70
2018-05-25T02:04:35.097Z,51.60
2018-05-25T02:08:37.745Z,51.80
2018-05-25T02:12:40.343Z,51.40
2018-05-25T02:16:42.994Z,51.40
2018-05-25T02:20:45.632Z,51.80
2018-05-25T02:24:48.277Z,51.40
2018-05-25T02:28:50.921Z,51.40
2018-05-25T02:32:53.531Z,51.30
2018-05-25T02:36:56.949Z,51.30
2018-05-25T02:40:59.590Z,51.30
2018-05-25T02:45:02.252Z,51.20
2018-05-25T02:49:04.898Z,51.30
2018-05-25T02:53:08.271Z,51.50
2018-05-25T02:57:11.013Z,52.10
2018-05-25T03:01:13.597Z,52.20
2018-05-25T03:05:16.236Z,51.50
2018-05-25T03:09:18.983Z,52.70
2018-05-25T03:13:21.583Z,52.40
2018-05-25T03:17:24.361Z,52.40
2018-05-25T03:21:26.996Z,53.50
2018-05-25T03:25:29.636Z,53.20
2018-05-25T03:29:32.306Z,53.20
2018-05-25T03:33:35.716Z,54.10
2018-05-25T03:37:39.127Z,54.00
2018-05-25T03:41:43.503Z,53.30
2018-05-25T03:45:46.154Z,53.30
2018-05-25T03:49:48.815Z,53.00
2018-05-25T03:53:51.456Z,53.50
2018-05-25T03:57:54.092Z,53.90
2018-05-25T04:01:59.484Z,52.90
2018-05-25T04:06:02.984Z,53.10
2018-05-25T04:10:05.650Z,53.50
2018-05-25T04:14:09.054Z,53.90
2018-05-25T04:18:12.513Z,53.50
2018-05-25T04:22:15.152Z,53.40
2018-05-25T04:26:18.569Z,53.70
2018-05-25T04:30:21.168Z,53.60
2018-05-25T04:34:23.859Z,53.40
2018-05-25T04:38:26.501Z,53.10
2018-05-25T04:42:29.142Z,53.30
2018-05-25T04:46:31.784Z,53.60
2018-05-25T04:50:34.388Z,53.20
2018-05-25T04:54:37.791Z,54.30
2018-05-25T04:58:41.190Z,53.60
2018-05-25T05:02:44.591Z,53.90
2018-05-25T05:06:47.231Z,54.00
2018-05-25T05:10:49.832Z,54.00
2018-05-25T05:14:52.527Z,55.00
2018-05-25T05:18:55.144Z,54.70
2018-05-25T05:22:57.797Z,55.40
2018-05-25T05:27:00.493Z,55.00
2018-05-25T05:31:03.081Z,54.30
2018-05-25T05:35:05.730Z,55.50
2018-05-25T05:39:08.420Z,53.60
2018-05-25T05:43:11.138Z,53.50
2018-05-25T05:47:13.776Z,53.70
2018-05-25T05:51:17.149Z,53.80
2018-05-25T05:55:19.844Z,53.80
2018-05-25T05:59:23.279Z,55.90
2018-05-25T06:03:26.683Z,54.10
2018-05-25T06:07:30.083Z,54.80
2018-05-25T06:11:32.684Z,54.70
2018-05-25T06:15:36.095Z,54.30
2018-05-25T06:19:39.556Z,55.40
2018-05-25T06:23:42.712Z,55.30
2018-05-25T06:27:45.624Z,54.80
2018-05-25T06:31:48.251Z,54.80
2018-05-25T06:35:50.956Z,54.80
2018-05-25T06:39:53.604Z,54.00
2018-05-25T06:43:56.261Z,53.30
2018-05-25T06:47:58.897Z,53.00
2018-05-25T06:52:01.511Z,50.70
2018-05-25T06:56:04.930Z,51.10
2018-05-25T07:00:08.339Z,50.10
2018-05-25T07:04:11.744Z,49.50
2018-05-25T07:08:15.207Z,49.40
2018-05-25T07:12:18.102Z,48.30
2018-05-25T07:16:20.755Z,48.90
2018-05-25T07:20:23.394Z,48.70
2018-05-25T07:24:26.125Z,48.90
2018-05-25T07:28:28.763Z,48.60
2018-05-25T07:32:31.369Z,48.90
2018-05-25T07:36:34.069Z,47.90
2018-05-25T07:40:37.533Z,46.30
2018-05-25T07:44:40.171Z,46.20
2018-05-25T07:48:43.592Z,45.50
2018-05-25T07:52:46.195Z,45.40
2018-05-25T07:56:48.836Z,45.70
2018-05-25T08:00:51.473Z,45.00
2018-05-25T08:04:54.112Z,45.00
2018-05-25T08:08:56.792Z,44.30
2018-05-25T08:12:59.387Z,44.30
2018-05-25T08:17:02.032Z,43.30
2018-05-25T08:21:04.705Z,43.50
2018-05-25T08:25:07.397Z,43.70
2018-05-25T08:29:10.042Z,43.50
2018-05-25T08:33:12.972Z,43.90
2018-05-25T08:37:15.615Z,43.50
2018-05-25T08:41:18.248Z,42.90
2018-05-25T08:45:20.900Z,43.30
2018-05-25T08:49:23.538Z,44.00
2018-05-25T08:53:26.140Z,43.10
2018-05-25T08:57:28.778Z,43.20
2018-05-25T09:01:32.185Z,42.00
2018-05-25T09:05:35.652Z,43.30
2018-05-25T09:13:35.377Z,44.10
2018-05-25T09:17:38.013Z,43.20
2018-05-25T09:21:40.699Z,43.60
2018-05-25T09:25:43.328Z,44.10
2018-05-25T09:29:45.973Z,43.90
2018-05-25T09:33:48.620Z,44.80
2018-05-25T09:37:51.264Z,44.70
2018-05-25T09:41:54.677Z,45.50
2018-05-25T09:45:58.101Z,44.30
2018-05-25T09:50:00.742Z,44.30
2018-05-25T09:54:03.405Z,44.60
2018-05-25T09:58:06.040Z,45.30
2018-05-25T10:02:09.443Z,45.20
2018-05-25T10:06:12.853Z,45.10
2018-05-25T10:10:16.239Z,44.80
2018-05-25T10:14:18.876Z,44.70
2018-05-25T10:18:21.575Z,45.80
2018-05-25T10:22:24.214Z,45.80
2018-05-25T10:26:26.856Z,46.10
2018-05-25T10:30:29.497Z,45.30
2018-05-25T10:34:32.136Z,45.90
2018-05-25T10:38:34.780Z,46.20
2018-05-25T10:42:38.184Z,45.20
2018-05-25T10:46:40.821Z,45.10
2018-05-25T10:50:43.460Z,46.20
2018-05-25T10:54:46.882Z,45.10
2018-05-25T10:58:49.530Z,45.00
2018-05-25T11:02:52.177Z,44.80
2018-05-25T11:06:54.784Z,44.20
2018-05-25T11:10:57.478Z,43.20
2018-05-25T11:15:00.115Z,43.90
2018-05-25T11:19:03.527Z,44.20
2018-05-25T11:23:06.894Z,44.80
2018-05-25T11:27:09.537Z,44.80
2018-05-25T11:31:12.180Z,44.30
2018-05-25T11:35:14.836Z,43.20
2018-05-25T11:39:17.596Z,44.20
2018-05-25T11:43:20.276Z,43.20
2018-05-25T11:47:22.953Z,43.10
2018-05-25T11:51:26.369Z,42.50
2018-05-25T11:55:29.777Z,43.20
2018-05-25T11:59:33.149Z,44.10
2018-05-25T12:03:35.799Z,44.00
2018-05-25T12:07:39.211Z,43.50
2018-05-25T12:11:41.848Z,43.50
2018-05-25T12:15:44.550Z,42.00
2018-05-25T12:19:47.921Z,43.10
2018-05-25T12:23:50.561Z,43.10
2018-05-25T12:27:53.206Z,43.10
2018-05-25T12:31:55.853Z,42.50
2018-05-25T12:35:59.273Z,41.40
2018-05-25T12:40:01.881Z,41.50
2018-05-25T12:44:04.528Z,41.70
2018-05-25T12:48:07.200Z,41.50
2018-05-25T12:52:10.604Z,41.60
2018-05-25T12:56:14.033Z,41.90
2018-05-25T13:00:16.663Z,41.90
2018-05-25T13:04:19.303Z,42.50
2018-05-25T13:08:21.945Z,43.20
2018-05-25T13:12:24.590Z,43.50
2018-05-25T13:16:27.259Z,43.40
2018-05-25T13:20:29.895Z,44.40
2018-05-25T13:24:32.575Z,43.40
2018-05-25T13:28:35.251Z,44.00
2018-05-25T13:32:37.884Z,44.00
2018-05-25T13:36:40.490Z,44.00
2018-05-25T13:40:44.343Z,44.60
2018-05-25T13:44:47.008Z,44.60
2018-05-25T13:48:49.652Z,44.80
2018-05-25T13:52:52.345Z,43.80
2018-05-25T13:56:54.985Z,44.70
2018-05-25T14:00:57.623Z,44.00
2018-05-25T14:05:00.271Z,42.60
2018-05-25T14:09:02.912Z,42.20
2018-05-25T14:13:05.545Z,42.90
2018-05-25T14:17:08.152Z,43.10
2018-05-25T14:21:10.799Z,44.10
2018-05-25T14:25:13.504Z,44.00
2018-05-25T14:29:16.187Z,44.10
2018-05-25T14:33:18.886Z,43.30
2018-05-25T14:37:21.487Z,43.50
2018-05-25T14:41:24.126Z,43.40
2018-05-25T14:45:27.539Z,44.10
2018-05-25T14:49:30.940Z,44.30
2018-05-25T14:53:34.713Z,44.30
2018-05-25T14:57:37.569Z,44.20
2018-05-25T15:01:40.211Z,43.30
2018-05-25T15:05:42.855Z,44.50
2018-05-25T15:09:46.332Z,44.30
2018-05-25T15:13:48.939Z,44.30
2018-05-25T15:17:51.548Z,44.70
2018-05-25T15:21:54.293Z,44.60
2018-05-25T15:25:57.701Z,45.00
2018-05-25T15:30:01.104Z,45.20
2018-05-25T15:34:04.515Z,45.10
2018-05-25T15:38:07.884Z,45.40
2018-05-25T15:42:10.600Z,45.30
2018-05-25T15:46:13.235Z,45.80
2018-05-25T15:50:15.880Z,45.60
2018-05-25T15:54:18.512Z,45.40
2018-05-25T15:58:21.112Z,45.50
2018-05-25T16:02:23.825Z,45.60
2018-05-25T16:06:26.407Z,45.40
2018-05-25T16:10:29.112Z,45.20
2018-05-25T16:14:31.748Z,45.60
2018-05-25T16:18:34.356Z,46.20
2018-05-25T16:22:36.992Z,45.20
2018-05-25T16:26:40.392Z,45.40
2018-05-25T16:30:44.443Z,45.90
2018-05-25T16:34:47.079Z,45.80
2018-05-25T16:38:49.685Z,45.70
2018-05-25T16:42:52.332Z,45.60
2018-05-25T16:46:54.968Z,45.90
2018-05-25T16:50:58.368Z,45.70
2018-05-25T16:55:01.008Z,45.70
2018-05-25T16:59:03.612Z,45.60
2018-05-25T17:03:06.247Z,45.90
2018-05-25T17:07:09.662Z,45.90
2018-05-25T17:11:12.303Z,45.90
2018-05-25T17:15:14.943Z,45.90
2018-05-25T17:19:17.544Z,46.00
2018-05-25T17:23:20.245Z,46.10
2018-05-25T17:27:22.887Z,46.00
2018-05-25T17:31:26.294Z,46.10
2018-05-25T17:35:29.699Z,46.10
2018-05-25T17:39:33.059Z,46.20
2018-05-25T17:43:35.704Z,46.10
2018-05-25T17:47:39.108Z,46.20
2018-05-25T17:51:42.568Z,46.20
2018-05-25T17:55:45.201Z,46.20
2018-05-25T17:59:48.564Z,46.80
2018-05-25T18:03:51.208Z,46.10
2018-05-25T18:07:53.885Z,46.10
2018-05-25T18:11:57.293Z,46.30
2018-05-25T18:16:00.702Z,46.20
2018-05-25T18:20:03.353Z,46.10
2018-05-25T18:24:06.000Z,46.20
2018-05-25T18:28:08.644Z,46.30
2018-05-25T18:32:11.283Z,46.40
2018-05-25T18:36:13.928Z,47.00
2018-05-25T18:40:17.303Z,46.50
2018-05-25T18:44:19.950Z,46.50
2018-05-25T18:48:22.634Z,46.60
2018-05-25T18:52:25.272Z,46.70
2018-05-25T18:56:27.963Z,46.80
2018-05-25T19:00:30.634Z,46.70
2018-05-25T19:04:33.330Z,46.70
2018-05-25T19:08:35.950Z,46.70
2018-05-25T19:12:38.597Z,46.70
2018-05-25T19:16:41.302Z,46.70
2018-05-25T19:20:44.415Z,46.80
2018-05-25T19:24:47.072Z,46.80
2018-05-25T19:28:49.773Z,46.90
2018-05-25T19:32:52.413Z,46.90
2018-05-25T19:36:55.059Z,47.00
2018-05-25T19:40:57.715Z,47.10
2018-05-25T19:45:00.351Z,47.00
2018-05-25T19:49:03.032Z,47.10
2018-05-25T19:53:05.673Z,47.10
2018-05-25T19:57:08.308Z,47.20
2018-05-25T20:01:11.704Z,47.50
2018-05-25T20:05:14.352Z,47.50
2018-05-25T20:09:16.989Z,47.50
2018-05-25T20:13:19.634Z,47.50
2018-05-25T20:17:22.271Z,47.50
2018-05-25T20:21:24.886Z,47.50
2018-05-25T20:25:28.300Z,47.50
2018-05-25T20:29:30.940Z,47.50
2018-05-25T20:33:33.585Z,47.60
2018-05-25T20:37:36.284Z,47.50
2018-05-25T20:41:38.881Z,47.40
2018-05-25T20:45:41.519Z,47.70
2018-05-25T20:49:44.193Z,47.60
2018-05-25T20:53:47.008Z,47.60
2018-05-25T20:57:49.644Z,47.70
2018-05-25T21:01:52.280Z,48.10
2018-05-25T21:05:55.679Z,47.20
2018-05-25T21:09:58.324Z,47.20
2018-05-25T21:14:00.916Z,47.20
2018-05-25T21:18:03.560Z,47.00
2018-05-25T21:22:06.955Z,46.80
2018-05-25T21:26:10.360Z,47.40
2018-05-25T21:30:13.763Z,46.80
2018-05-25T21:34:17.173Z,46.80
2018-05-25T21:38:20.640Z,46.70
2018-05-25T21:42:23.283Z,46.70
2018-05-25T21:46:26.727Z,46.80
2018-05-25T21:50:29.325Z,46.70
2018-05-25T21:54:32.028Z,46.70
2018-05-25T21:58:34.664Z,46.70
2018-05-25T22:02:37.308Z,46.70
2018-05-25T22:06:39.906Z,46.70
2018-05-25T22:10:42.570Z,46.80
2018-05-25T22:14:45.217Z,46.80
2018-05-25T22:18:47.972Z,46.70
2018-05-25T22:22:50.614Z,46.70
2018-05-25T22:26:53.213Z,46.70
2018-05-25T22:30:55.904Z,46.90
2018-05-25T22:34:58.544Z,46.80
2018-05-25T22:39:01.211Z,47.20
2018-05-25T22:43:15.598Z,46.90
2018-05-25T22:47:30.792Z,47.00
2018-05-25T22:51:45.249Z,46.90
2018-05-25T22:55:48.660Z,46.70
2018-05-25T22:59:52.060Z,46.70
2018-05-25T23:03:55.428Z,46.70
2018-05-25T23:07:58.072Z,46.70
2018-05-25T23:12:00.772Z,46.80
2018-05-25T23:16:03.415Z,46.80
2018-05-25T23:20:06.057Z,46.80
2018-05-25T23:24:08.726Z,46.90
2018-05-25T23:28:11.361Z,46.90
2018-05-25T23:32:14.004Z,46.70
2018-05-25T23:36:16.649Z,46.90
2018-05-25T23:40:19.297Z,46.70
2018-05-25T23:44:21.900Z,46.80
2018-05-25T23:48:24.542Z,46.80
2018-05-25T23:52:27.945Z,46.70
2018-05-25T23:56:31.344Z,46.70
